Point, TX (75472)

5:05 PM CDT on September 03, 2015 (GMT -0500)
APRSWXNET | | Change Station
CLOSE
Current Station
Personal Weather Station
Location: Point, TX
Elevation: 459 ft
Nearby Weather Stations

Elev 459 ft 32.89 °N, 95.93 °W | Updated 38 minutes ago

Partly Cloudy
Partly Cloudy
93 °F
Feels Like 97 °F
N
0
Wind Variable Wind from ENE
Gusts 3.0 mph

Today
High -- | Low -- °F
--% Chance of Precip.
Yesterday
High -- | Low -- °F
Precip. -- in
6:59 AM 7:46 PM
Waning Gibbous, 66% visible
Pressure 29.90 in
Visibility 10.0 miles
Clouds Clear
Heat Index 97 °F
Dew Point 67 °F
Humidity 43%
Rainfall in
Snow Depth Not available.
UV 4 out of 12
Pollen 9.80 out of 12
Air Quality Not available.
Flu Activity Not available.
METAR KGVT 032155Z AUTO 14010KT 10SM CLR 34/16 A2990 RMK AO2
Pressure 29.90 in
Visibility 10.0 miles
Clouds Clear
Heat Index 97 °F
Dew Point 67 °F
Humidity 43%
Rainfall in
Snow Depth Not available.
UV 4 out of 12
Pollen 9.80 out of 12
Air Quality Not available.
Flu Activity Not available.
METAR KGVT 032155Z AUTO 14010KT 10SM CLR 34/16 A2990 RMK AO2
Nowcast | as of 2:08 PM CDT on September 3, 2015

Isolated showers...along with a rumble of thunder or two will be possible this afternoon mainly along and southeast of a Canton to Marlin to Thorndale line. Rainfall amounts should remain light...generally less than one quarter of an inch. Cloud to ground lightning and gusty winds up to 30 mph may be possible with the stronger storms should they develop. Otherwise...temperatures are expected to climb into the mid to upper 90s beneath partly to mostly sunny skies.

×

10-Day Weather Forecast

×

Almanac

Astronomy

Sep. 03, 2015 Rise Set
Actual Time
Civil Twilight
Nautical Twilight
Astronomical Twilight
Moon
Length of Visible Light
Length of Day
Tomorrow will be .
, % of the Moon is Illuminated

Today's Extremes

State Highs State Lows

Community

WunderPhotos

Upload Photos

1,852,046 photos uploaded!

WunderBlogs® & News

Nearby

Air Quality

  Air Quality AQ Index Pollutant
Not available.

Snow Depth

Station Depth Elevation

Earthquake Activity

City Distance Mag. Time & Date
Minimum magnitude displayed is 2.5.

Coastal Water Temperatures

Place Temperature

Stations

Nearby Weather Stations

Station Location Temp. Windchill Dew Point Humidity Wind Precip. Elev Updated Type